Terminal Aerodrome Forecast
Issued by NWS Blacksburg, VA

Home | Current Version | Previous Version | Text Only | Print | Product List | Glossary On
Versions: 1 2 3 4 5 6 7 8 9 10 11 12 13 14 15 16 17 18 19 20 21 22 23 24 25 26 27 28 29 30 31 32 33 34 35 36 37 38 39 40 41 42 43 44
000
FTUS41 KRNK 292123 AAA
TAFDAN
TAF AMD
KDAN 292123Z 2921/3018 21007KT P6SM SCT025
     FM292200 19005KT P6SM VCTS SCT015 BKN035CB
     FM300100 VRB03KT P6SM BKN050
     FM300500 00000KT 5SM BR SCT025 BKN100
     FM301000 00000KT 2SM BR SCT012 OVC025
     FM301300 24007KT P6SM SCT050 BKN100=

USA.gov is the U.S. government's official web portal to all federal, state and local government web resources and services.